Hassyoumaru — JL6679 — position and weather

sailwx.info

Track history (hours):
 
Tides and Currents Weather Stations Pressure Air Temp Water Temp Dewpoint Dewpoint Depression Visibility Wind Speed Wind Dir Waves Ship Positions

Hassyoumaru

Last reported at 2017-Nov-19 16:12 UTC. Time now 2017-Nov-22 10:58 UTC.
Position N 34°40' E 135°27'.

Length 58 m.

Type: Cargo ship. MMSI: 431501763.

Date/timePositionNaut miles runAvg speedWind from/ knotsBaromVisibWave heightAir tempDewpointWater temp
2017-Nov-19 16:12N 34°40' E 135°27'3 7.8
2017-Nov-19 15:51N 34°39' E 135°24'510.6
2017-Nov-19 15:24N 34°38' E 135°19'410.9
2017-Nov-19 15:00N 34°37' E 135°14'611.3
2017-Nov-19 14:30N 34°35' E 135°07'  
2017-Nov-17 06:58N 34°36' E 135°03'611.3
2017-Nov-17 06:28N 34°37' E 135°10'612.0
2017-Nov-17 06:00N 34°38' E 135°17'7 0.8
2017-Nov-16 20:40N 34°39' E 135°26'2 9.9
2017-Nov-16 20:28N 34°38' E 135°24'510.2
2017-Nov-16 19:59N 34°38' E 135°18'510.7
2017-Nov-16 19:30N 34°36' E 135°12'611.8
2017-Nov-16 18:59N 34°35' E 135°04'1 0.0
2017-Nov-15 08:44N 34°36' E 135°04'311.1
2017-Nov-15 08:30N 34°36' E 135°07'611.4
2017-Nov-15 08:00N 34°37' E 135°14'611.1
2017-Nov-15 07:30N 34°38' E 135°21'6 0.7
2017-Nov-14 22:42N 34°40' E 135°27'0 0.0
2017-Nov-14 22:12N 34°40' E 135°27'0 0.0
2017-Nov-14 22:00N 34°40' E 135°27'0 0.0
2017-Nov-14 21:24N 34°40' E 135°27'0 0.0
2017-Nov-14 20:54N 34°40' E 135°27'0 0.0
2017-Nov-14 20:30N 34°40' E 135°27'0 0.0
2017-Nov-14 20:00N 34°40' E 135°27'0 0.0
2017-Nov-14 19:30N 34°40' E 135°27'0 0.0
2017-Nov-14 18:12N 34°40' E 135°27'0 0.0
2017-Nov-14 17:42N 34°40' E 135°27'2 5.4
2017-Nov-14 17:22N 34°39' E 135°25'410.4
2017-Nov-14 17:00N 34°38' E 135°21'611.1
2017-Nov-14 16:30N 34°37' E 135°15'611.4
2017-Nov-14 15:59N 34°35' E 135°08'  
2017-Nov-11 08:58N 34°37' E 135°01'511.0
2017-Nov-11 08:30N 34°36' E 135°07'611.7
2017-Nov-11 08:00N 34°37' E 135°14'611.7
2017-Nov-11 07:30N 34°38' E 135°21'5 0.8
2017-Nov-11 00:17N 34°40' E 135°27'0 0.0
2017-Nov-10 23:23N 34°40' E 135°27'0 0.0
2017-Nov-10 22:59N 34°40' E 135°27'0 0.0
2017-Nov-10 22:29N 34°40' E 135°27'0 0.0
2017-Nov-10 21:59N 34°40' E 135°27'0 0.0
2017-Nov-10 21:29N 34°40' E 135°27'0 0.0
2017-Nov-10 20:59N 34°40' E 135°27'0 0.0
2017-Nov-10 20:23N 34°40' E 135°27'0 0.0
2017-Nov-10 19:59N 34°40' E 135°27'0 0.0
2017-Nov-10 19:29N 34°40' E 135°27'0 0.0
2017-Nov-10 18:53N 34°40' E 135°27'0 0.0
2017-Nov-10 18:29N 34°40' E 135°27'0 0.0
2017-Nov-10 17:53N 34°40' E 135°27'0 0.0
2017-Nov-10 17:29N 34°40' E 135°27'0 0.0
2017-Nov-10 16:57N 34°40' E 135°27'4 8.1
2017-Nov-10 16:30N 34°38' E 135°23'510.5
2017-Nov-10 15:59N 34°37' E 135°17'611.0
2017-Nov-10 15:29N 34°36' E 135°11'  
Track history (hours):
 
Tides and Currents Weather Stations Pressure Air Temp Water Temp Dewpoint Dewpoint Depression Visibility Wind Speed Wind Dir Waves Ship Positions

Hassyoumaru

Last reported at 2017-Nov-19 16:12 UTC. Time now 2017-Nov-22 10:58 UTC.
Position N 34°40' E 135°27'.

Length 58 m.

Type: Cargo ship. MMSI: 431501763.

Date/timePositionNaut miles runAvg speedWind from/ knotsBaromVisibWave heightAir tempDewpointWater temp
2017-Nov-19 16:12N 34°40' E 135°27'3 7.8
2017-Nov-19 15:51N 34°39' E 135°24'510.6
2017-Nov-19 15:24N 34°38' E 135°19'410.9
2017-Nov-19 15:00N 34°37' E 135°14'611.3
2017-Nov-19 14:30N 34°35' E 135°07'  
2017-Nov-17 06:58N 34°36' E 135°03'611.3
2017-Nov-17 06:28N 34°37' E 135°10'612.0
2017-Nov-17 06:00N 34°38' E 135°17'7 0.8
2017-Nov-16 20:40N 34°39' E 135°26'2 9.9
2017-Nov-16 20:28N 34°38' E 135°24'510.2
2017-Nov-16 19:59N 34°38' E 135°18'510.7
2017-Nov-16 19:30N 34°36' E 135°12'611.8
2017-Nov-16 18:59N 34°35' E 135°04'1 0.0
2017-Nov-15 08:44N 34°36' E 135°04'311.1
2017-Nov-15 08:30N 34°36' E 135°07'611.4
2017-Nov-15 08:00N 34°37' E 135°14'611.1
2017-Nov-15 07:30N 34°38' E 135°21'6 0.7
2017-Nov-14 22:42N 34°40' E 135°27'0 0.0
2017-Nov-14 22:12N 34°40' E 135°27'0 0.0
2017-Nov-14 22:00N 34°40' E 135°27'0 0.0
2017-Nov-14 21:24N 34°40' E 135°27'0 0.0
2017-Nov-14 20:54N 34°40' E 135°27'0 0.0
2017-Nov-14 20:30N 34°40' E 135°27'0 0.0
2017-Nov-14 20:00N 34°40' E 135°27'0 0.0
2017-Nov-14 19:30N 34°40' E 135°27'0 0.0
2017-Nov-14 18:12N 34°40' E 135°27'0 0.0
2017-Nov-14 17:42N 34°40' E 135°27'2 5.4
2017-Nov-14 17:22N 34°39' E 135°25'410.4
2017-Nov-14 17:00N 34°38' E 135°21'611.1
2017-Nov-14 16:30N 34°37' E 135°15'611.4
2017-Nov-14 15:59N 34°35' E 135°08'  
2017-Nov-11 08:58N 34°37' E 135°01'511.0
2017-Nov-11 08:30N 34°36' E 135°07'611.7
2017-Nov-11 08:00N 34°37' E 135°14'611.7
2017-Nov-11 07:30N 34°38' E 135°21'5 0.8
2017-Nov-11 00:17N 34°40' E 135°27'0 0.0
2017-Nov-10 23:23N 34°40' E 135°27'0 0.0
2017-Nov-10 22:59N 34°40' E 135°27'0 0.0
2017-Nov-10 22:29N 34°40' E 135°27'0 0.0
2017-Nov-10 21:59N 34°40' E 135°27'0 0.0
2017-Nov-10 21:29N 34°40' E 135°27'0 0.0
2017-Nov-10 20:59N 34°40' E 135°27'0 0.0
2017-Nov-10 20:23N 34°40' E 135°27'0 0.0
2017-Nov-10 19:59N 34°40' E 135°27'0 0.0
2017-Nov-10 19:29N 34°40' E 135°27'0 0.0
2017-Nov-10 18:53N 34°40' E 135°27'0 0.0
2017-Nov-10 18:29N 34°40' E 135°27'0 0.0
2017-Nov-10 17:53N 34°40' E 135°27'0 0.0
2017-Nov-10 17:29N 34°40' E 135°27'0 0.0
2017-Nov-10 16:57N 34°40' E 135°27'4 8.1
2017-Nov-10 16:30N 34°38' E 135°23'510.5
2017-Nov-10 15:59N 34°37' E 135°17'611.0
2017-Nov-10 15:29N 34°36' E 135°11'  

Dump ship's entire track history